sensor_id;sensor_type;location;lat;lon;timestamp;P1;durP1;ratioP1;P2;durP2;ratioP2
49626;SDS011;35527;54.616;39.786;2022-09-27T00:00:38;6.65;;;1.95;;
49626;SDS011;35527;54.616;39.786;2022-09-27T00:03:51;4.28;;;1.88;;
49626;SDS011;35527;54.616;39.786;2022-09-27T00:06:56;3.85;;;1.88;;
49626;SDS011;35527;54.616;39.786;2022-09-27T00:10:01;7.63;;;3.40;;
49626;SDS011;35527;54.616;39.786;2022-09-27T00:13:06;7.05;;;3.40;;
49626;SDS011;35527;54.616;39.786;2022-09-27T00:16:10;4.40;;;1.92;;
49626;SDS011;35527;54.616;39.786;2022-09-27T00:19:14;5.95;;;2.30;;
49626;SDS011;35527;54.616;39.786;2022-09-27T00:22:24;5.32;;;1.85;;
49626;SDS011;35527;54.616;39.786;2022-09-27T00:25:29;5.07;;;2.67;;
49626;SDS011;35527;54.616;39.786;2022-09-27T00:28:32;13.32;;;4.00;;
49626;SDS011;35527;54.616;39.786;2022-09-27T00:31:37;39.15;;;13.60;;
49626;SDS011;35527;54.616;39.786;2022-09-27T00:34:42;45.80;;;11.77;;
49626;SDS011;35527;54.616;39.786;2022-09-27T00:37:49;41.88;;;10.57;;
49626;SDS011;35527;54.616;39.786;2022-09-27T00:40:54;118.03;;;28.25;;
49626;SDS011;35527;54.616;39.786;2022-09-27T00:43:58;39.03;;;15.60;;
49626;SDS011;35527;54.616;39.786;2022-09-27T00:50:38;34.83;;;9.25;;
49626;SDS011;35527;54.616;39.786;2022-09-27T00:53:48;31.95;;;9.30;;
49626;SDS011;35527;54.616;39.786;2022-09-27T00:56:55;49.85;;;19.65;;
49626;SDS011;35527;54.616;39.786;2022-09-27T01:00:06;26.58;;;8.18;;
49626;SDS011;35527;54.616;39.786;2022-09-27T01:03:14;49.70;;;12.73;;
49626;SDS011;35527;54.616;39.786;2022-09-27T01:06:45;38.22;;;15.38;;
49626;SDS011;35527;54.616;39.786;2022-09-27T01:09:48;25.98;;;8.10;;
49626;SDS011;35527;54.616;39.786;2022-09-27T01:16:11;98.07;;;36.90;;
49626;SDS011;35527;54.616;39.786;2022-09-27T01:33:16;14.40;;;5.57;;
49626;SDS011;35527;54.616;39.786;2022-09-27T01:36:59;11.38;;;4.50;;
49626;SDS011;35527;54.616;39.786;2022-09-27T01:40:32;11.68;;;6.38;;
49626;SDS011;35527;54.616;39.786;2022-09-27T01:44:27;12.55;;;3.95;;
49626;SDS011;35527;54.616;39.786;2022-09-27T01:47:44;11.15;;;5.22;;
49626;SDS011;35527;54.616;39.786;2022-09-27T01:54:39;14.88;;;6.22;;
49626;SDS011;35527;54.616;39.786;2022-09-27T01:58:11;11.30;;;4.65;;
49626;SDS011;35527;54.616;39.786;2022-09-27T02:01:25;12.18;;;4.97;;
49626;SDS011;35527;54.616;39.786;2022-09-27T02:04:31;16.08;;;5.88;;
49626;SDS011;35527;54.616;39.786;2022-09-27T02:07:48;9.55;;;3.92;;
49626;SDS011;35527;54.616;39.786;2022-09-27T02:11:00;15.38;;;7.88;;
49626;SDS011;35527;54.616;39.786;2022-09-27T02:14:10;16.73;;;5.95;;
49626;SDS011;35527;54.616;39.786;2022-09-27T02:17:32;14.40;;;5.53;;
49626;SDS011;35527;54.616;39.786;2022-09-27T02:20:56;18.58;;;6.60;;
49626;SDS011;35527;54.616;39.786;2022-09-27T02:24:02;17.67;;;9.43;;
49626;SDS011;35527;54.616;39.786;2022-09-27T02:27:16;14.98;;;5.40;;
49626;SDS011;35527;54.616;39.786;2022-09-27T02:30:24;20.77;;;9.60;;
49626;SDS011;35527;54.616;39.786;2022-09-27T02:33:48;18.25;;;9.15;;
49626;SDS011;35527;54.616;39.786;2022-09-27T02:36:55;21.45;;;8.85;;
49626;SDS011;35527;54.616;39.786;2022-09-27T02:39:59;18.48;;;4.90;;
49626;SDS011;35527;54.616;39.786;2022-09-27T02:43:03;18.27;;;5.28;;
49626;SDS011;35527;54.616;39.786;2022-09-27T03:00:20;18.55;;;8.73;;
49626;SDS011;35527;54.616;39.786;2022-09-27T03:03:45;17.55;;;8.95;;
49626;SDS011;35527;54.616;39.786;2022-09-27T03:06:57;18.40;;;9.00;;
49626;SDS011;35527;54.616;39.786;2022-09-27T03:10:02;12.23;;;5.33;;
49626;SDS011;35527;54.616;39.786;2022-09-27T03:13:07;11.18;;;4.80;;
49626;SDS011;35527;54.616;39.786;2022-09-27T03:16:12;20.55;;;10.05;;
49626;SDS011;35527;54.616;39.786;2022-09-27T03:19:40;17.27;;;9.07;;
49626;SDS011;35527;54.616;39.786;2022-09-27T03:22:58;14.50;;;5.75;;
49626;SDS011;35527;54.616;39.786;2022-09-27T03:26:01;16.85;;;8.95;;
49626;SDS011;35527;54.616;39.786;2022-09-27T03:29:07;11.82;;;5.30;;
49626;SDS011;35527;54.616;39.786;2022-09-27T03:32:13;13.38;;;5.03;;
49626;SDS011;35527;54.616;39.786;2022-09-27T03:35:34;21.38;;;8.10;;
49626;SDS011;35527;54.616;39.786;2022-09-27T03:38:41;10.10;;;5.03;;
49626;SDS011;35527;54.616;39.786;2022-09-27T03:41:50;12.38;;;5.07;;
49626;SDS011;35527;54.616;39.786;2022-09-27T03:44:54;14.23;;;8.02;;
49626;SDS011;35527;54.616;39.786;2022-09-27T03:47:57;12.93;;;5.38;;
49626;SDS011;35527;54.616;39.786;2022-09-27T03:51:04;13.15;;;5.60;;
49626;SDS011;35527;54.616;39.786;2022-09-27T03:54:14;22.70;;;8.80;;
49626;SDS011;35527;54.616;39.786;2022-09-27T03:57:22;19.67;;;7.15;;
49626;SDS011;35527;54.616;39.786;2022-09-27T04:00:25;18.02;;;7.60;;
49626;SDS011;35527;54.616;39.786;2022-09-27T04:03:32;23.88;;;10.90;;
49626;SDS011;35527;54.616;39.786;2022-09-27T04:07:26;17.77;;;6.53;;
49626;SDS011;35527;54.616;39.786;2022-09-27T04:10:29;36.33;;;11.88;;
49626;SDS011;35527;54.616;39.786;2022-09-27T04:13:32;40.88;;;14.15;;
49626;SDS011;35527;54.616;39.786;2022-09-27T04:16:40;31.42;;;12.40;;
49626;SDS011;35527;54.616;39.786;2022-09-27T04:19:58;35.03;;;14.57;;
49626;SDS011;35527;54.616;39.786;2022-09-27T04:23:02;30.58;;;11.57;;
49626;SDS011;35527;54.616;39.786;2022-09-27T04:26:06;56.00;;;18.73;;
49626;SDS011;35527;54.616;39.786;2022-09-27T04:29:24;25.85;;;7.03;;
49626;SDS011;35527;54.616;39.786;2022-09-27T04:32:28;23.25;;;8.88;;
49626;SDS011;35527;54.616;39.786;2022-09-27T04:36:14;18.55;;;8.25;;
49626;SDS011;35527;54.616;39.786;2022-09-27T04:39:46;41.85;;;11.85;;
49626;SDS011;35527;54.616;39.786;2022-09-27T04:42:51;57.30;;;22.23;;
49626;SDS011;35527;54.616;39.786;2022-09-27T04:45:54;35.08;;;15.52;;
49626;SDS011;35527;54.616;39.786;2022-09-27T04:48:58;17.23;;;9.05;;
49626;SDS011;35527;54.616;39.786;2022-09-27T04:52:06;21.85;;;8.63;;
49626;SDS011;35527;54.616;39.786;2022-09-27T04:55:09;13.95;;;7.03;;
49626;SDS011;35527;54.616;39.786;2022-09-27T04:58:13;16.73;;;7.45;;
49626;SDS011;35527;54.616;39.786;2022-09-27T05:01:16;12.82;;;6.60;;
49626;SDS011;35527;54.616;39.786;2022-09-27T05:04:20;13.55;;;6.43;;
49626;SDS011;35527;54.616;39.786;2022-09-27T05:07:27;15.00;;;7.55;;
49626;SDS011;35527;54.616;39.786;2022-09-27T05:10:37;10.45;;;6.38;;
49626;SDS011;35527;54.616;39.786;2022-09-27T05:13:40;12.75;;;6.95;;
49626;SDS011;35527;54.616;39.786;2022-09-27T05:16:44;11.82;;;6.85;;
49626;SDS011;35527;54.616;39.786;2022-09-27T05:20:15;16.02;;;7.47;;
49626;SDS011;35527;54.616;39.786;2022-09-27T05:23:27;10.60;;;5.90;;
49626;SDS011;35527;54.616;39.786;2022-09-27T05:26:30;14.07;;;5.68;;
49626;SDS011;35527;54.616;39.786;2022-09-27T05:29:34;12.50;;;6.43;;
49626;SDS011;35527;54.616;39.786;2022-09-27T05:32:42;11.68;;;5.78;;
49626;SDS011;35527;54.616;39.786;2022-09-27T05:36:08;10.18;;;5.65;;
49626;SDS011;35527;54.616;39.786;2022-09-27T05:39:12;12.05;;;6.18;;
49626;SDS011;35527;54.616;39.786;2022-09-27T05:42:17;9.47;;;5.40;;
49626;SDS011;35527;54.616;39.786;2022-09-27T05:45:22;12.05;;;4.18;;
49626;SDS011;35527;54.616;39.786;2022-09-27T05:48:28;9.32;;;5.15;;
49626;SDS011;35527;54.616;39.786;2022-09-27T05:51:39;10.57;;;5.70;;
49626;SDS011;35527;54.616;39.786;2022-09-27T05:54:43;13.77;;;4.15;;
49626;SDS011;35527;54.616;39.786;2022-09-27T05:57:58;15.40;;;8.20;;
49626;SDS011;35527;54.616;39.786;2022-09-27T06:01:13;17.73;;;10.57;;
49626;SDS011;35527;54.616;39.786;2022-09-27T06:04:56;17.20;;;8.50;;
49626;SDS011;35527;54.616;39.786;2022-09-27T06:08:21;19.75;;;9.50;;
49626;SDS011;35527;54.616;39.786;2022-09-27T06:11:25;17.10;;;6.70;;
49626;SDS011;35527;54.616;39.786;2022-09-27T06:14:53;20.42;;;10.43;;
49626;SDS011;35527;54.616;39.786;2022-09-27T06:18:19;21.25;;;13.05;;
49626;SDS011;35527;54.616;39.786;2022-09-27T06:21:24;14.10;;;8.77;;
49626;SDS011;35527;54.616;39.786;2022-09-27T06:24:32;12.00;;;6.63;;
49626;SDS011;35527;54.616;39.786;2022-09-27T06:27:42;16.40;;;7.13;;
49626;SDS011;35527;54.616;39.786;2022-09-27T06:30:58;11.27;;;6.20;;
49626;SDS011;35527;54.616;39.786;2022-09-27T06:34:15;11.07;;;5.15;;
49626;SDS011;35527;54.616;39.786;2022-09-27T06:37:18;12.43;;;5.30;;
49626;SDS011;35527;54.616;39.786;2022-09-27T06:40:22;11.23;;;5.28;;
49626;SDS011;35527;54.616;39.786;2022-09-27T06:44:07;8.52;;;4.80;;
49626;SDS011;35527;54.616;39.786;2022-09-27T06:47:11;8.37;;;4.30;;
49626;SDS011;35527;54.616;39.786;2022-09-27T06:50:27;13.93;;;5.07;;
49626;SDS011;35527;54.616;39.786;2022-09-27T06:53:31;8.20;;;3.40;;
49626;SDS011;35527;54.616;39.786;2022-09-27T06:56:34;12.68;;;6.00;;
49626;SDS011;35527;54.616;39.786;2022-09-27T06:59:38;14.05;;;6.53;;
49626;SDS011;35527;54.616;39.786;2022-09-27T07:03:19;17.90;;;8.15;;
49626;SDS011;35527;54.616;39.786;2022-09-27T07:06:51;19.08;;;8.68;;
49626;SDS011;35527;54.616;39.786;2022-09-27T07:09:57;21.42;;;10.35;;
49626;SDS011;35527;54.616;39.786;2022-09-27T07:13:05;16.88;;;8.70;;
49626;SDS011;35527;54.616;39.786;2022-09-27T07:16:15;18.05;;;7.15;;
49626;SDS011;35527;54.616;39.786;2022-09-27T07:19:20;23.63;;;7.95;;
49626;SDS011;35527;54.616;39.786;2022-09-27T07:22:29;20.33;;;8.93;;
49626;SDS011;35527;54.616;39.786;2022-09-27T07:25:36;25.65;;;9.82;;
49626;SDS011;35527;54.616;39.786;2022-09-27T07:28:41;28.87;;;10.03;;
49626;SDS011;35527;54.616;39.786;2022-09-27T07:31:49;23.52;;;9.20;;
49626;SDS011;35527;54.616;39.786;2022-09-27T07:34:54;19.10;;;8.77;;
49626;SDS011;35527;54.616;39.786;2022-09-27T07:37:57;14.05;;;7.13;;
49626;SDS011;35527;54.616;39.786;2022-09-27T07:41:08;17.00;;;6.78;;
49626;SDS011;35527;54.616;39.786;2022-09-27T07:44:13;15.43;;;7.38;;
49626;SDS011;35527;54.616;39.786;2022-09-27T07:47:39;14.85;;;6.80;;
49626;SDS011;35527;54.616;39.786;2022-09-27T07:51:03;11.90;;;6.10;;
49626;SDS011;35527;54.616;39.786;2022-09-27T07:54:19;15.30;;;6.20;;
49626;SDS011;35527;54.616;39.786;2022-09-27T07:57:42;12.05;;;5.22;;
49626;SDS011;35527;54.616;39.786;2022-09-27T08:00:49;13.65;;;4.82;;
49626;SDS011;35527;54.616;39.786;2022-09-27T08:03:53;9.57;;;4.22;;
49626;SDS011;35527;54.616;39.786;2022-09-27T08:06:58;8.65;;;3.88;;
49626;SDS011;35527;54.616;39.786;2022-09-27T08:10:05;8.88;;;3.75;;
49626;SDS011;35527;54.616;39.786;2022-09-27T08:13:10;10.57;;;3.80;;
49626;SDS011;35527;54.616;39.786;2022-09-27T08:16:13;9.30;;;4.00;;
49626;SDS011;35527;54.616;39.786;2022-09-27T08:19:56;9.00;;;5.18;;
49626;SDS011;35527;54.616;39.786;2022-09-27T08:23:16;9.73;;;4.95;;
49626;SDS011;35527;54.616;39.786;2022-09-27T08:26:29;13.00;;;5.95;;
49626;SDS011;35527;54.616;39.786;2022-09-27T08:29:55;12.27;;;4.85;;
49626;SDS011;35527;54.616;39.786;2022-09-27T08:33:00;9.00;;;4.82;;
49626;SDS011;35527;54.616;39.786;2022-09-27T08:36:11;8.68;;;4.20;;
49626;SDS011;35527;54.616;39.786;2022-09-27T08:39:17;9.40;;;4.40;;
49626;SDS011;35527;54.616;39.786;2022-09-27T08:45:37;6.95;;;3.47;;
49626;SDS011;35527;54.616;39.786;2022-09-27T08:48:44;8.88;;;4.03;;
49626;SDS011;35527;54.616;39.786;2022-09-27T08:51:53;8.68;;;4.18;;
49626;SDS011;35527;54.616;39.786;2022-09-27T08:55:02;8.48;;;3.60;;
49626;SDS011;35527;54.616;39.786;2022-09-27T08:58:44;7.40;;;3.33;;
49626;SDS011;35527;54.616;39.786;2022-09-27T09:01:51;6.70;;;3.22;;
49626;SDS011;35527;54.616;39.786;2022-09-27T09:05:06;5.72;;;2.88;;
49626;SDS011;35527;54.616;39.786;2022-09-27T09:26:13;5.55;;;2.30;;
49626;SDS011;35527;54.616;39.786;2022-09-27T09:49:41;5.97;;;1.92;;
49626;SDS011;35527;54.616;39.786;2022-09-27T09:52:53;5.45;;;2.20;;
49626;SDS011;35527;54.616;39.786;2022-09-27T09:56:09;6.65;;;2.17;;
49626;SDS011;35527;54.616;39.786;2022-09-27T09:59:27;4.93;;;2.03;;
49626;SDS011;35527;54.616;39.786;2022-09-27T10:02:39;4.65;;;1.83;;
49626;SDS011;35527;54.616;39.786;2022-09-27T10:05:49;5.30;;;1.63;;
49626;SDS011;35527;54.616;39.786;2022-09-27T10:08:53;4.28;;;1.55;;
49626;SDS011;35527;54.616;39.786;2022-09-27T10:12:06;3.33;;;1.60;;
49626;SDS011;35527;54.616;39.786;2022-09-27T10:15:14;4.97;;;1.90;;
49626;SDS011;35527;54.616;39.786;2022-09-27T10:18:22;3.97;;;1.70;;
49626;SDS011;35527;54.616;39.786;2022-09-27T10:21:27;5.57;;;1.70;;
49626;SDS011;35527;54.616;39.786;2022-09-27T10:24:40;4.72;;;1.60;;
49626;SDS011;35527;54.616;39.786;2022-09-27T10:28:38;6.78;;;1.40;;
49626;SDS011;35527;54.616;39.786;2022-09-27T10:31:47;3.33;;;1.55;;
49626;SDS011;35527;54.616;39.786;2022-09-27T10:35:13;4.32;;;1.50;;
49626;SDS011;35527;54.616;39.786;2022-09-27T10:38:36;5.40;;;2.08;;
49626;SDS011;35527;54.616;39.786;2022-09-27T10:41:56;6.07;;;1.80;;
49626;SDS011;35527;54.616;39.786;2022-09-27T10:45:20;4.13;;;1.83;;
49626;SDS011;35527;54.616;39.786;2022-09-27T10:48:43;4.78;;;1.65;;
49626;SDS011;35527;54.616;39.786;2022-09-27T10:51:51;5.47;;;1.90;;
49626;SDS011;35527;54.616;39.786;2022-09-27T10:55:19;2.85;;;1.50;;
49626;SDS011;35527;54.616;39.786;2022-09-27T10:58:31;4.93;;;1.65;;
49626;SDS011;35527;54.616;39.786;2022-09-27T11:01:40;3.50;;;1.73;;
49626;SDS011;35527;54.616;39.786;2022-09-27T11:05:32;4.10;;;1.83;;
49626;SDS011;35527;54.616;39.786;2022-09-27T11:08:29;5.60;;;2.00;;
49626;SDS011;35527;54.616;39.786;2022-09-27T11:11:42;3.08;;;1.60;;
49626;SDS011;35527;54.616;39.786;2022-09-27T11:14:55;4.45;;;1.77;;
49626;SDS011;35527;54.616;39.786;2022-09-27T11:18:08;5.65;;;2.30;;
49626;SDS011;35527;54.616;39.786;2022-09-27T11:31:48;4.20;;;2.10;;
49626;SDS011;35527;54.616;39.786;2022-09-27T11:39:10;5.22;;;2.20;;
49626;SDS011;35527;54.616;39.786;2022-09-27T11:45:53;6.05;;;2.65;;
49626;SDS011;35527;54.616;39.786;2022-09-27T12:10:34;3.72;;;2.25;;
49626;SDS011;35527;54.616;39.786;2022-09-27T12:13:44;4.50;;;2.38;;
49626;SDS011;35527;54.616;39.786;2022-09-27T12:16:51;6.05;;;2.50;;
49626;SDS011;35527;54.616;39.786;2022-09-27T12:20:04;4.18;;;2.30;;
49626;SDS011;35527;54.616;39.786;2022-09-27T12:23:21;4.30;;;2.20;;
49626;SDS011;35527;54.616;39.786;2022-09-27T12:26:37;4.80;;;2.80;;
49626;SDS011;35527;54.616;39.786;2022-09-27T12:29:45;7.78;;;2.50;;
49626;SDS011;35527;54.616;39.786;2022-09-27T12:33:17;4.68;;;2.58;;
49626;SDS011;35527;54.616;39.786;2022-09-27T12:36:54;5.23;;;2.63;;
49626;SDS011;35527;54.616;39.786;2022-09-27T12:40:12;5.97;;;2.55;;
49626;SDS011;35527;54.616;39.786;2022-09-27T12:43:27;5.82;;;2.72;;
49626;SDS011;35527;54.616;39.786;2022-09-27T13:00:25;4.10;;;2.35;;
49626;SDS011;35527;54.616;39.786;2022-09-27T13:14:28;5.57;;;2.75;;
49626;SDS011;35527;54.616;39.786;2022-09-27T13:21:06;6.72;;;3.13;;
49626;SDS011;35527;54.616;39.786;2022-09-27T13:28:32;5.65;;;3.15;;
49626;SDS011;35527;54.616;39.786;2022-09-27T13:35:22;4.30;;;1.70;;
49626;SDS011;35527;54.616;39.786;2022-09-27T13:46:30;7.20;;;3.50;;
49626;SDS011;35527;54.616;39.786;2022-09-27T13:49:41;6.97;;;2.90;;
49626;SDS011;35527;54.616;39.786;2022-09-27T13:53:05;5.72;;;3.30;;
49626;SDS011;35527;54.616;39.786;2022-09-27T13:56:51;6.95;;;3.58;;
49626;SDS011;35527;54.616;39.786;2022-09-27T13:59:50;8.57;;;3.47;;
49626;SDS011;35527;54.616;39.786;2022-09-27T14:03:20;6.05;;;3.47;;
49626;SDS011;35527;54.616;39.786;2022-09-27T14:06:34;6.32;;;3.50;;
49626;SDS011;35527;54.616;39.786;2022-09-27T14:09:45;5.68;;;3.50;;
49626;SDS011;35527;54.616;39.786;2022-09-27T14:13:03;7.18;;;3.58;;
49626;SDS011;35527;54.616;39.786;2022-09-27T14:16:21;6.22;;;3.50;;
49626;SDS011;35527;54.616;39.786;2022-09-27T14:19:24;7.00;;;3.60;;
49626;SDS011;35527;54.616;39.786;2022-09-27T14:22:29;5.15;;;3.17;;
49626;SDS011;35527;54.616;39.786;2022-09-27T14:25:43;5.82;;;3.10;;
49626;SDS011;35527;54.616;39.786;2022-09-27T14:28:49;7.05;;;4.10;;
49626;SDS011;35527;54.616;39.786;2022-09-27T14:32:04;6.30;;;3.53;;
49626;SDS011;35527;54.616;39.786;2022-09-27T14:35:26;9.38;;;3.88;;
49626;SDS011;35527;54.616;39.786;2022-09-27T14:38:50;5.88;;;3.60;;
49626;SDS011;35527;54.616;39.786;2022-09-27T14:42:14;7.17;;;4.10;;
49626;SDS011;35527;54.616;39.786;2022-09-27T14:45:22;6.25;;;3.75;;
49626;SDS011;35527;54.616;39.786;2022-09-27T14:48:38;5.80;;;4.00;;
49626;SDS011;35527;54.616;39.786;2022-09-27T14:51:41;7.45;;;3.58;;
49626;SDS011;35527;54.616;39.786;2022-09-27T14:54:53;5.68;;;3.65;;
49626;SDS011;35527;54.616;39.786;2022-09-27T14:58:01;5.90;;;3.72;;
49626;SDS011;35527;54.616;39.786;2022-09-27T15:01:11;6.22;;;4.20;;
49626;SDS011;35527;54.616;39.786;2022-09-27T15:04:45;6.05;;;4.05;;
49626;SDS011;35527;54.616;39.786;2022-09-27T15:07:50;7.15;;;4.15;;
49626;SDS011;35527;54.616;39.786;2022-09-27T15:10:54;7.57;;;4.13;;
49626;SDS011;35527;54.616;39.786;2022-09-27T15:14:00;5.50;;;4.30;;
49626;SDS011;35527;54.616;39.786;2022-09-27T15:17:15;7.88;;;4.40;;
49626;SDS011;35527;54.616;39.786;2022-09-27T15:20:31;7.22;;;4.95;;
49626;SDS011;35527;54.616;39.786;2022-09-27T15:23:42;8.93;;;7.30;;
49626;SDS011;35527;54.616;39.786;2022-09-27T15:26:49;6.22;;;4.30;;
49626;SDS011;35527;54.616;39.786;2022-09-27T15:29:54;7.07;;;4.95;;
49626;SDS011;35527;54.616;39.786;2022-09-27T15:33:00;6.65;;;4.70;;
49626;SDS011;35527;54.616;39.786;2022-09-27T15:36:06;8.98;;;4.80;;
49626;SDS011;35527;54.616;39.786;2022-09-27T15:39:11;5.55;;;4.20;;
49626;SDS011;35527;54.616;39.786;2022-09-27T15:42:21;6.82;;;3.08;;
49626;SDS011;35527;54.616;39.786;2022-09-27T15:48:39;7.23;;;5.03;;
49626;SDS011;35527;54.616;39.786;2022-09-27T15:51:45;6.72;;;3.28;;
49626;SDS011;35527;54.616;39.786;2022-09-27T15:54:52;5.88;;;4.32;;
49626;SDS011;35527;54.616;39.786;2022-09-27T15:57:58;7.20;;;4.85;;
49626;SDS011;35527;54.616;39.786;2022-09-27T16:01:05;7.63;;;4.57;;
49626;SDS011;35527;54.616;39.786;2022-09-27T16:04:08;6.60;;;4.57;;
49626;SDS011;35527;54.616;39.786;2022-09-27T16:07:14;7.30;;;4.57;;
49626;SDS011;35527;54.616;39.786;2022-09-27T16:10:21;5.75;;;4.25;;
49626;SDS011;35527;54.616;39.786;2022-09-27T16:13:29;7.90;;;4.28;;
49626;SDS011;35527;54.616;39.786;2022-09-27T16:16:33;6.07;;;4.53;;
49626;SDS011;35527;54.616;39.786;2022-09-27T16:19:38;6.20;;;4.55;;
49626;SDS011;35527;54.616;39.786;2022-09-27T16:22:44;6.78;;;4.85;;
49626;SDS011;35527;54.616;39.786;2022-09-27T16:25:47;6.13;;;4.07;;
49626;SDS011;35527;54.616;39.786;2022-09-27T16:28:51;6.45;;;4.20;;
49626;SDS011;35527;54.616;39.786;2022-09-27T16:32:20;7.05;;;4.25;;
49626;SDS011;35527;54.616;39.786;2022-09-27T16:35:25;6.40;;;3.83;;
49626;SDS011;35527;54.616;39.786;2022-09-27T16:38:29;6.40;;;4.35;;
49626;SDS011;35527;54.616;39.786;2022-09-27T16:41:33;7.43;;;4.50;;
49626;SDS011;35527;54.616;39.786;2022-09-27T16:44:38;7.43;;;4.68;;
49626;SDS011;35527;54.616;39.786;2022-09-27T16:47:41;6.45;;;4.63;;
49626;SDS011;35527;54.616;39.786;2022-09-27T16:50:44;7.13;;;4.40;;
49626;SDS011;35527;54.616;39.786;2022-09-27T16:54:08;5.82;;;3.75;;
49626;SDS011;35527;54.616;39.786;2022-09-27T16:57:13;6.28;;;4.32;;
49626;SDS011;35527;54.616;39.786;2022-09-27T17:00:17;6.50;;;3.88;;
49626;SDS011;35527;54.616;39.786;2022-09-27T17:03:21;7.35;;;4.35;;
49626;SDS011;35527;54.616;39.786;2022-09-27T17:06:24;5.20;;;2.72;;
49626;SDS011;35527;54.616;39.786;2022-09-27T17:09:36;6.05;;;4.22;;
49626;SDS011;35527;54.616;39.786;2022-09-27T17:12:42;7.30;;;4.07;;
49626;SDS011;35527;54.616;39.786;2022-09-27T17:18:50;5.50;;;3.80;;
49626;SDS011;35527;54.616;39.786;2022-09-27T17:21:57;6.50;;;3.55;;
49626;SDS011;35527;54.616;39.786;2022-09-27T17:25:00;4.43;;;2.33;;
49626;SDS011;35527;54.616;39.786;2022-09-27T17:28:04;5.68;;;3.55;;
49626;SDS011;35527;54.616;39.786;2022-09-27T17:31:08;4.93;;;3.42;;
49626;SDS011;35527;54.616;39.786;2022-09-27T17:34:20;6.30;;;3.72;;
49626;SDS011;35527;54.616;39.786;2022-09-27T17:37:23;5.93;;;3.50;;
49626;SDS011;35527;54.616;39.786;2022-09-27T17:40:26;5.40;;;3.70;;
49626;SDS011;35527;54.616;39.786;2022-09-27T17:43:29;5.38;;;3.28;;
49626;SDS011;35527;54.616;39.786;2022-09-27T17:46:35;6.15;;;3.50;;
49626;SDS011;35527;54.616;39.786;2022-09-27T17:49:39;4.38;;;2.13;;
49626;SDS011;35527;54.616;39.786;2022-09-27T17:53:01;5.72;;;3.47;;
49626;SDS011;35527;54.616;39.786;2022-09-27T17:56:05;5.47;;;3.20;;
49626;SDS011;35527;54.616;39.786;2022-09-27T17:59:10;4.65;;;2.30;;
49626;SDS011;35527;54.616;39.786;2022-09-27T18:02:17;5.55;;;3.03;;
49626;SDS011;35527;54.616;39.786;2022-09-27T18:05:20;4.72;;;2.70;;
49626;SDS011;35527;54.616;39.786;2022-09-27T18:08:24;5.45;;;2.95;;
49626;SDS011;35527;54.616;39.786;2022-09-27T18:11:57;4.45;;;2.63;;
49626;SDS011;35527;54.616;39.786;2022-09-27T18:15:02;5.43;;;2.92;;
49626;SDS011;35527;54.616;39.786;2022-09-27T18:18:05;4.82;;;2.88;;
49626;SDS011;35527;54.616;39.786;2022-09-27T18:21:11;4.50;;;1.90;;
49626;SDS011;35527;54.616;39.786;2022-09-27T18:24:20;4.53;;;2.78;;
49626;SDS011;35527;54.616;39.786;2022-09-27T18:27:22;4.47;;;2.53;;
49626;SDS011;35527;54.616;39.786;2022-09-27T18:30:31;5.22;;;2.80;;
49626;SDS011;35527;54.616;39.786;2022-09-27T18:33:36;6.05;;;2.88;;
49626;SDS011;35527;54.616;39.786;2022-09-27T18:36:40;4.75;;;2.70;;
49626;SDS011;35527;54.616;39.786;2022-09-27T18:39:45;4.50;;;2.92;;
49626;SDS011;35527;54.616;39.786;2022-09-27T18:42:50;4.70;;;2.53;;
49626;SDS011;35527;54.616;39.786;2022-09-27T18:45:54;6.38;;;2.83;;
49626;SDS011;35527;54.616;39.786;2022-09-27T18:49:07;4.70;;;2.75;;
49626;SDS011;35527;54.616;39.786;2022-09-27T18:52:12;4.15;;;2.30;;
49626;SDS011;35527;54.616;39.786;2022-09-27T18:55:15;4.95;;;2.47;;
49626;SDS011;35527;54.616;39.786;2022-09-27T18:58:21;4.60;;;2.47;;
49626;SDS011;35527;54.616;39.786;2022-09-27T19:01:25;4.03;;;2.20;;
49626;SDS011;35527;54.616;39.786;2022-09-27T19:04:29;3.70;;;2.20;;
49626;SDS011;35527;54.616;39.786;2022-09-27T19:07:31;4.03;;;2.53;;
49626;SDS011;35527;54.616;39.786;2022-09-27T19:10:41;5.25;;;2.45;;
49626;SDS011;35527;54.616;39.786;2022-09-27T19:13:49;4.40;;;2.30;;
49626;SDS011;35527;54.616;39.786;2022-09-27T19:16:55;4.40;;;2.55;;
49626;SDS011;35527;54.616;39.786;2022-09-27T19:20:00;3.93;;;2.00;;
49626;SDS011;35527;54.616;39.786;2022-09-27T19:23:05;3.05;;;1.30;;
49626;SDS011;35527;54.616;39.786;2022-09-27T19:26:10;3.65;;;2.20;;
49626;SDS011;35527;54.616;39.786;2022-09-27T19:29:16;4.30;;;2.30;;
49626;SDS011;35527;54.616;39.786;2022-09-27T19:32:19;3.58;;;1.95;;
49626;SDS011;35527;54.616;39.786;2022-09-27T19:35:21;4.13;;;2.03;;
49626;SDS011;35527;54.616;39.786;2022-09-27T19:38:50;3.60;;;1.95;;
49626;SDS011;35527;54.616;39.786;2022-09-27T19:41:56;4.50;;;2.35;;
49626;SDS011;35527;54.616;39.786;2022-09-27T19:45:03;3.72;;;2.22;;
49626;SDS011;35527;54.616;39.786;2022-09-27T19:48:11;3.63;;;1.85;;
49626;SDS011;35527;54.616;39.786;2022-09-27T19:51:21;4.00;;;1.80;;
49626;SDS011;35527;54.616;39.786;2022-09-27T19:54:26;3.15;;;1.83;;
49626;SDS011;35527;54.616;39.786;2022-09-27T19:57:30;3.63;;;1.95;;
49626;SDS011;35527;54.616;39.786;2022-09-27T20:00:34;3.70;;;1.90;;
49626;SDS011;35527;54.616;39.786;2022-09-27T20:03:40;2.47;;;1.60;;
49626;SDS011;35527;54.616;39.786;2022-09-27T20:06:44;3.03;;;1.70;;
49626;SDS011;35527;54.616;39.786;2022-09-27T20:09:49;4.40;;;1.90;;
49626;SDS011;35527;54.616;39.786;2022-09-27T20:12:56;2.92;;;1.65;;
49626;SDS011;35527;54.616;39.786;2022-09-27T20:16:02;2.80;;;1.60;;
49626;SDS011;35527;54.616;39.786;2022-09-27T20:19:10;4.13;;;2.30;;
49626;SDS011;35527;54.616;39.786;2022-09-27T20:22:14;3.15;;;1.70;;
49626;SDS011;35527;54.616;39.786;2022-09-27T20:25:17;4.60;;;1.88;;
49626;SDS011;35527;54.616;39.786;2022-09-27T20:28:21;3.42;;;1.90;;
49626;SDS011;35527;54.616;39.786;2022-09-27T20:31:27;2.55;;;1.50;;
49626;SDS011;35527;54.616;39.786;2022-09-27T20:34:37;3.63;;;1.60;;
49626;SDS011;35527;54.616;39.786;2022-09-27T20:37:43;3.33;;;1.77;;
49626;SDS011;35527;54.616;39.786;2022-09-27T20:40:51;2.55;;;1.50;;
49626;SDS011;35527;54.616;39.786;2022-09-27T20:43:57;2.88;;;1.50;;
49626;SDS011;35527;54.616;39.786;2022-09-27T20:47:09;3.25;;;1.65;;
49626;SDS011;35527;54.616;39.786;2022-09-27T20:50:12;2.85;;;1.65;;
49626;SDS011;35527;54.616;39.786;2022-09-27T20:53:15;2.63;;;1.50;;
49626;SDS011;35527;54.616;39.786;2022-09-27T20:59:22;4.30;;;2.30;;
49626;SDS011;35527;54.616;39.786;2022-09-27T21:02:50;2.88;;;1.63;;
49626;SDS011;35527;54.616;39.786;2022-09-27T21:05:54;3.33;;;2.03;;
49626;SDS011;35527;54.616;39.786;2022-09-27T21:08:59;3.03;;;1.57;;
49626;SDS011;35527;54.616;39.786;2022-09-27T21:12:05;3.00;;;1.60;;
49626;SDS011;35527;54.616;39.786;2022-09-27T21:15:09;2.97;;;1.65;;
49626;SDS011;35527;54.616;39.786;2022-09-27T21:18:14;2.78;;;1.60;;
49626;SDS011;35527;54.616;39.786;2022-09-27T21:21:22;3.58;;;1.98;;
49626;SDS011;35527;54.616;39.786;2022-09-27T21:24:28;11.82;;;2.35;;
49626;SDS011;35527;54.616;39.786;2022-09-27T21:27:31;3.92;;;1.70;;
49626;SDS011;35527;54.616;39.786;2022-09-27T21:30:34;2.75;;;1.70;;
49626;SDS011;35527;54.616;39.786;2022-09-27T21:33:38;3.22;;;1.85;;
49626;SDS011;35527;54.616;39.786;2022-09-27T21:36:41;3.85;;;1.95;;